Time;durP1;ratioP1;P1;durP2;ratioP2;P2;SDS_P1;SDS_P2;PMS_P1;PMS_P2;Temp;Humidity;BMP_temperature;BMP_pressure;BME280_temperature;BME280_humidity;BME280_pressure;Samples;Min_cycle;Max_cycle;Signal;HPM_P1;HPM_P2
2023/12/29 00:00:28;;;;;;;;;1.25;1.25;;;;;11.92;94.17;100836.31;4865442;29;45454;-82
2023/12/29 00:02:53;;;;;;;;;4.25;2.00;;;;;11.96;94.19;100827.47;4866295;29;45483;-81
2023/12/29 00:05:18;;;;;;;;;3.00;1.75;;;;;12.05;94.22;100843.53;4864164;29;45621;-81
2023/12/29 00:07:44;;;;;;;;;5.00;2.50;;;;;12.10;93.80;100830.22;4866409;29;45403;-81
2023/12/29 00:10:09;;;;;;;;;7.00;2.25;;;;;12.16;93.46;100828.53;4864167;29;45436;-81
2023/12/29 00:16:23;;;;;;;;;3.50;2.25;;;;;12.45;92.70;100840.34;4865843;29;45495;-81
2023/12/29 00:18:49;;;;;;;;;6.00;3.00;;;;;12.32;92.91;100837.56;4865556;29;46131;-81
2023/12/29 00:21:14;;;;;;;;;5.25;2.25;;;;;12.42;92.44;100835.84;4865359;29;45475;-80
2023/12/29 00:23:39;;;;;;;;;4.50;3.75;;;;;12.46;92.24;100851.00;4848600;29;45401;-80
2023/12/29 00:26:05;;;;;;;;;3.75;1.00;;;;;12.48;91.84;100840.34;4847562;29;45425;-80
2023/12/29 00:28:30;;;;;;;;;2.00;1.25;;;;;12.52;91.51;100845.72;4864092;29;47160;-80
2023/12/29 00:30:56;;;;;;;;;6.00;3.67;;;;;12.57;91.21;100837.75;4848495;29;45402;-81
2023/12/29 00:33:21;;;;;;;;;3.00;1.00;;;;;12.54;91.45;100833.28;4864224;29;45414;-81
2023/12/29 00:35:46;;;;;;;;;5.50;3.25;;;;;12.56;90.94;100839.53;4863407;29;45520;-81
2023/12/29 00:38:12;;;;;;;;;1.75;1.75;;;;;12.59;91.13;100831.53;4864369;29;45592;-81
2023/12/29 00:40:37;;;;;;;;;2.25;2.00;;;;;12.57;90.89;100819.97;4850301;29;46109;-81
2023/12/29 00:43:03;;;;;;;;;4.00;3.25;;;;;12.62;90.32;100830.66;4867416;29;45471;-81
2023/12/29 00:45:32;;;;;;;;;2.25;2.25;;;;;12.63;90.38;100826.25;4867678;29;45622;-81
2023/12/29 00:47:58;;;;;;;;;2.75;2.75;;;;;12.65;90.43;100821.81;4866974;29;45454;-81
2023/12/29 00:50:24;;;;;;;;;2.00;2.00;;;;;12.68;90.38;100838.72;4864646;29;45795;-81
2023/12/29 00:52:49;;;;;;;;;1.75;0.75;;;;;12.67;90.10;100823.59;4848279;29;45431;-82
2023/12/29 00:55:15;;;;;;;;;1.50;1.00;;;;;12.65;89.85;100824.47;4850816;29;45305;-81
2023/12/29 00:57:41;;;;;;;;;5.25;3.00;;;;;12.60;90.05;100820.00;4850214;29;47095;-81
2023/12/29 01:00:10;;;;;;;;;2.00;2.00;;;;;12.68;90.11;100836.03;4867469;29;45456;-81
2023/12/29 01:02:37;;;;;;;;;1.50;1.00;;;;;12.76;90.37;100828.97;4849447;29;45515;-80
2023/12/29 01:05:03;;;;;;;;;2.00;1.00;;;;;12.67;89.92;100834.28;4866490;29;45584;-81
2023/12/29 01:07:29;;;;;;;;;1.75;1.50;;;;;12.62;89.50;100822.66;4849585;29;48129;-80
2023/12/29 01:09:55;;;;;;;;;1.00;1.00;;;;;12.64;89.85;100820.88;4864487;29;45359;-81
2023/12/29 01:12:20;;;;;;;;;4.00;2.00;;;;;12.51;89.46;100801.25;4867185;29;45470;-81
2023/12/29 01:14:45;;;;;;;;;2.00;1.00;;;;;12.54;89.66;100809.28;4867295;29;45625;-81
2023/12/29 01:17:11;;;;;;;;;4.00;2.25;;;;;12.49;89.46;100802.13;4848901;29;47217;-80
2023/12/29 01:19:36;;;;;;;;;3.00;3.00;;;;;12.43;89.64;100805.63;4848068;29;45335;-81
2023/12/29 01:22:01;;;;;;;;;3.25;2.00;;;;;12.38;89.59;100802.94;4865165;29;45897;-81
2023/12/29 01:24:27;;;;;;;;;2.00;2.00;;;;;12.37;89.70;100809.16;4865780;29;47286;-81
2023/12/29 01:27:33;;;;;;;;;2.00;1.50;;;;;12.55;89.89;100808.38;4865810;29;46095;-81
2023/12/29 01:29:59;;;;;;;;;2.50;2.50;;;;;12.41;89.86;100807.41;4846291;29;45496;-81
2023/12/29 01:32:25;;;;;;;;;3.00;3.00;;;;;12.43;90.23;100812.75;4863593;29;45470;-81
2023/12/29 01:34:52;;;;;;;;;3.00;1.75;;;;;12.52;90.16;100805.72;4863745;29;45360;-81
2023/12/29 01:37:17;;;;;;;;;4.25;3.00;;;;;12.45;89.99;100795.88;4847428;29;47122;-81
2023/12/29 01:39:43;;;;;;;;;2.50;2.50;;;;;12.44;90.21;100799.41;4864177;29;45484;-81
2023/12/29 01:42:08;;;;;;;;;3.25;2.00;;;;;12.46;90.35;100802.97;4863976;29;45788;-80
2023/12/29 01:44:33;;;;;;;;;3.25;2.25;;;;;12.52;90.17;100802.13;4864509;29;45478;-81
2023/12/29 01:47:00;;;;;;;;;2.75;2.75;;;;;12.64;89.96;100802.22;4867106;29;47338;-80
2023/12/29 01:49:27;;;;;;;;;3.00;3.00;;;;;12.62;89.99;100798.66;4868231;29;46054;-81
2023/12/29 01:51:58;;;;;;;;;4.00;1.50;;;;;12.77;89.81;100816.53;4867317;29;45362;-82
2023/12/29 01:54:27;;;;;;;;;2.50;2.50;;;;;12.72;90.16;100804.94;4864944;29;45617;-81
2023/12/29 01:56:56;;;;;;;;;2.00;1.00;;;;;12.72;90.00;100813.81;4849655;29;45399;-80
2023/12/29 01:59:22;;;;;;;;;1.50;1.50;;;;;12.66;90.04;100807.56;4868146;29;45769;-81
2023/12/29 02:01:48;;;;;;;;;1.33;0.67;;;;;12.69;89.50;100810.28;4868059;29;45570;-81
2023/12/29 02:04:14;;;;;;;;;1.00;1.00;;;;;12.79;89.83;100818.34;4851626;29;45451;-81
2023/12/29 02:06:40;;;;;;;;;0.50;0.50;;;;;12.76;89.67;100812.97;4866317;29;47383;-80
2023/12/29 02:09:05;;;;;;;;;3.67;3.00;;;;;12.80;89.68;100819.22;4867454;29;45377;-81
2023/12/29 02:11:31;;;;;;;;;2.00;1.00;;;;;12.80;89.65;100803.22;4868018;29;45679;-80
2023/12/29 02:13:58;;;;;;;;;2.00;2.00;;;;;12.90;89.68;100815.72;4868263;29;45425;-80
2023/12/29 02:16:46;;;;;;;;;0.67;0.67;;;;;13.10;89.19;100822.94;4851767;29;47379;-81
2023/12/29 02:19:25;;;;;;;;;1.75;1.75;;;;;13.05;89.12;100808.69;4866735;29;45977;-80
2023/12/29 02:21:50;;;;;;;;;2.00;2.00;;;;;12.94;88.92;100804.16;4851819;29;44895;-80
2023/12/29 02:24:16;;;;;;;;;2.00;2.00;;;;;12.91;89.04;100806.84;4867147;29;45324;-81
2023/12/29 02:26:47;;;;;;;;;6.33;2.00;;;;;12.94;88.77;100804.16;4850454;29;47407;-80
2023/12/29 02:29:17;;;;;;;;;1.75;1.00;;;;;12.94;89.32;100812.19;4868043;29;45577;-81
2023/12/29 02:31:47;;;;;;;;;4.25;2.25;;;;;12.91;88.82;100805.97;4868585;29;45691;-81
2023/12/29 02:34:15;;;;;;;;;4.00;2.00;;;;;12.99;88.96;100814.91;4866207;29;45453;-81
2023/12/29 02:36:42;;;;;;;;;1.00;1.00;;;;;12.90;88.25;100791.69;4851446;29;47395;-81
2023/12/29 02:39:10;;;;;;;;;4.00;2.50;;;;;12.97;88.57;100801.53;4867001;29;45405;-81
2023/12/29 02:41:38;;;;;;;;;5.50;2.00;;;;;12.97;89.01;100800.66;4866344;29;45327;-81
2023/12/29 02:44:06;;;;;;;;;1.50;1.50;;;;;12.90;88.84;100797.03;4867062;29;45364;-81
2023/12/29 02:46:31;;;;;;;;;1.75;1.25;;;;;12.88;88.88;100795.25;4868171;29;45365;-81
2023/12/29 02:48:56;;;;;;;;;3.50;3.00;;;;;12.81;88.77;100789.88;4865308;29;45384;-81
2023/12/29 02:51:22;;;;;;;;;3.00;1.75;;;;;12.86;89.28;100797.03;4865233;29;45730;-81
2023/12/29 02:53:48;;;;;;;;;1.75;1.75;;;;;12.84;89.47;100791.66;4865398;28;45437;-81
2023/12/29 02:56:14;;;;;;;;;2.00;1.00;;;;;12.82;89.52;100774.75;4848063;29;48185;-81
2023/12/29 02:58:39;;;;;;;;;1.50;0.50;;;;;12.80;89.35;100777.44;4848856;29;45508;-80
2023/12/29 03:01:05;;;;;;;;;2.25;1.00;;;;;12.84;89.57;100783.66;4849242;29;45408;-81
2023/12/29 03:03:30;;;;;;;;;2.00;1.50;;;;;12.81;89.68;100773.88;4864657;29;45528;-81
2023/12/29 03:05:58;;;;;;;;;1.67;1.67;;;;;12.81;89.88;100775.66;4867301;29;45358;-81
2023/12/29 03:08:24;;;;;;;;;7.00;2.25;;;;;12.78;90.16;100763.16;4868409;29;45468;-81
2023/12/29 03:10:49;;;;;;;;;2.00;1.00;;;;;12.81;90.18;100772.97;4865776;29;45429;-81
2023/12/29 03:13:14;;;;;;;;;1.00;1.00;;;;;12.82;90.35;100769.41;4867613;29;45397;-80
2023/12/29 03:15:40;;;;;;;;;2.67;1.00;;;;;12.84;90.12;100767.63;4864257;28;47063;-80
2023/12/29 03:21:27;;;;;;;;;1.50;1.00;;;;;12.90;90.09;100745.44;4868590;29;45478;-81
2023/12/29 03:23:52;;;;;;;;;2.00;1.00;;;;;12.93;90.30;100765.03;4849681;29;45884;-81
2023/12/29 03:26:18;;;;;;;;;4.00;2.67;;;;;12.91;90.18;100758.78;4866763;29;45908;-81
2023/12/29 03:28:43;;;;;;;;;2.33;2.33;;;;;12.89;90.46;100754.34;4866993;29;45852;-81
2023/12/29 03:31:09;;;;;;;;;3.00;1.00;;;;;12.91;90.28;100753.47;4849986;29;45428;-81
2023/12/29 03:33:34;;;;;;;;;2.00;2.00;;;;;12.87;90.72;100751.66;4833470;29;45391;-81
2023/12/29 03:35:59;;;;;;;;;3.00;1.67;;;;;12.90;90.59;100762.34;4849037;29;47221;-81
2023/12/29 03:38:25;;;;;;;;;2.00;2.00;;;;;12.91;90.54;100766.81;4865792;29;44810;-81
2023/12/29 03:40:50;;;;;;;;;3.00;1.00;;;;;12.87;90.43;100757.00;4851554;29;46466;-81
2023/12/29 03:43:15;;;;;;;;;1.00;1.00;;;;;12.89;90.50;100754.34;4850444;29;45420;-81
2023/12/29 03:45:41;;;;;;;;;0.00;0.00;;;;;12.85;90.49;100752.53;4850179;29;47012;-81
2023/12/29 03:48:08;;;;;;;;;1.67;1.67;;;;;12.88;90.54;100756.09;4867141;29;45369;-81
2023/12/29 03:50:34;;;;;;;;;2.50;1.00;;;;;12.87;90.55;100757.00;4866781;29;45487;-82
2023/12/29 03:52:59;;;;;;;;;3.00;1.67;;;;;12.85;90.77;100742.75;4865944;29;45576;-81
2023/12/29 03:55:24;;;;;;;;;0.00;0.00;;;;;12.85;90.75;100739.19;4866728;29;45404;-81
2023/12/29 03:57:50;;;;;;;;;1.00;1.00;;;;;12.84;90.63;100746.28;4866666;29;45478;-80
2023/12/29 04:00:15;;;;;;;;;3.00;1.00;;;;;12.87;90.87;100740.09;4849404;28;49142;-82
2023/12/29 04:02:41;;;;;;;;;2.00;1.00;;;;;12.89;90.69;100743.66;4848602;29;45539;-81
2023/12/29 04:05:08;;;;;;;;;2.00;2.00;;;;;12.95;90.49;100738.34;4865442;29;45354;-80
2023/12/29 04:07:33;;;;;;;;;3.33;3.00;;;;;12.90;90.35;100734.75;4850186;29;45706;-81
2023/12/29 04:09:59;;;;;;;;;2.00;0.00;;;;;12.88;89.83;100731.19;4865880;29;45769;-81
2023/12/29 04:12:24;;;;;;;;;3.00;1.00;;;;;12.91;89.52;100740.09;4864573;29;45478;-81
2023/12/29 04:14:49;;;;;;;;;3.33;2.33;;;;;12.88;89.26;100732.06;4864190;29;45332;-80
2023/12/29 04:17:15;;;;;;;;;1.00;1.00;;;;;12.91;89.32;100726.75;4863525;29;45448;-80
2023/12/29 04:19:41;;;;;;;;;3.00;2.33;;;;;12.97;89.34;100737.47;4865186;29;45254;-81
2023/12/29 04:22:07;;;;;;;;;0.75;0.75;;;;;13.00;88.91;100729.44;4865688;29;45392;-80
2023/12/29 04:24:32;;;;;;;;;2.00;2.00;;;;;13.04;88.88;100737.50;4847993;29;47129;-80
2023/12/29 04:26:58;;;;;;;;;1.75;1.00;;;;;13.05;88.06;100728.56;4833367;29;45278;-81
2023/12/29 04:29:23;;;;;;;;;7.00;2.00;;;;;13.04;88.14;100735.69;4866466;29;45384;-80
2023/12/29 04:31:48;;;;;;;;;1.50;1.00;;;;;13.07;88.43;100737.47;4849315;29;45537;-81
2023/12/29 04:34:15;;;;;;;;;3.33;1.33;;;;;13.17;88.37;100729.53;4848571;29;46955;-81
2023/12/29 04:36:40;;;;;;;;;1.75;1.75;;;;;13.06;88.14;100722.38;4863726;29;45527;-82
2023/12/29 04:39:08;;;;;;;;;3.00;2.00;;;;;13.07;88.07;100730.38;4864880;29;45859;-81
2023/12/29 04:41:34;;;;;;;;;0.00;0.00;;;;;13.06;88.02;100733.94;4865060;29;45356;-82
2023/12/29 04:44:00;;;;;;;;;3.00;2.00;;;;;13.04;88.04;100718.81;4864892;29;45404;-82
2023/12/29 04:46:26;;;;;;;;;0.00;0.00;;;;;13.10;88.17;100717.03;4849078;29;45419;-81
2023/12/29 04:48:53;;;;;;;;;0.50;0.50;;;;;13.11;88.22;100723.25;4848992;29;45471;-81
2023/12/29 04:51:18;;;;;;;;;1.75;1.75;;;;;13.10;87.88;100717.03;4867743;29;45408;-81
2023/12/29 04:53:44;;;;;;;;;1.33;1.00;;;;;13.06;88.04;100707.22;4863576;29;45325;-82
2023/12/29 04:56:09;;;;;;;;;2.67;1.00;;;;;13.14;87.80;100717.94;4864447;29;45383;-81
2023/12/29 04:58:35;;;;;;;;;1.00;1.00;;;;;13.15;87.49;100717.97;4847011;29;45412;-82
2023/12/29 05:01:00;;;;;;;;;2.50;2.00;;;;;13.14;87.29;100693.91;4863954;29;45631;-82
2023/12/29 05:03:25;;;;;;;;;5.00;2.50;;;;;13.16;87.18;100709.03;4867011;29;46068;-81
2023/12/29 05:05:51;;;;;;;;;0.75;0.75;;;;;13.11;87.03;100707.25;4863666;29;45840;-81
2023/12/29 05:08:22;;;;;;;;;2.00;2.00;;;;;13.19;87.42;100702.84;4849755;29;45446;-81
2023/12/29 05:11:35;;;;;;;;;6.25;1.75;;;;;13.19;87.31;100710.84;4866231;29;45277;-84
2023/12/29 05:14:00;;;;;;;;;2.00;2.00;;;;;12.99;87.55;100706.31;4848367;29;48536;-81
2023/12/29 05:16:26;;;;;;;;;0.00;0.00;;;;;13.02;87.53;100709.00;4868016;29;45365;-81
2023/12/29 05:18:51;;;;;;;;;2.75;2.00;;;;;13.04;87.93;100722.34;4848455;29;57677;-81
2023/12/29 05:21:25;;;;;;;;;1.75;0.50;;;;;13.11;87.80;100720.59;4867303;29;45350;-81
2023/12/29 05:23:51;;;;;;;;;1.25;1.25;;;;;13.06;88.15;100719.69;4866197;29;45444;-81
2023/12/29 05:26:23;;;;;;;;;1.00;1.00;;;;;13.20;88.17;100724.19;4867953;29;45333;-81
2023/12/29 05:28:48;;;;;;;;;2.00;2.00;;;;;13.01;88.16;100723.25;4869070;29;45439;-81
2023/12/29 05:31:13;;;;;;;;;3.00;2.00;;;;;13.04;88.60;100726.81;4850614;29;45496;-82
2023/12/29 05:33:39;;;;;;;;;4.00;2.00;;;;;12.94;88.53;100720.53;4850687;29;48047;-81
2023/12/29 05:36:09;;;;;;;;;2.00;2.00;;;;;13.09;88.56;100725.94;4850911;29;46065;-81
2023/12/29 05:38:35;;;;;;;;;1.33;1.00;;;;;13.02;88.35;100733.03;4868500;29;45385;-81
2023/12/29 05:41:02;;;;;;;;;1.75;1.00;;;;;13.02;88.37;100726.78;4866418;29;45536;-82
2023/12/29 05:43:27;;;;;;;;;1.00;1.00;;;;;13.11;87.96;100739.28;4868002;29;45544;-82
2023/12/29 05:45:53;;;;;;;;;1.25;1.00;;;;;13.14;87.99;100739.31;4850950;29;45469;-81
2023/12/29 05:48:28;;;;;;;;;1.00;1.00;;;;;13.28;87.84;100734.00;4850655;29;45526;-82
2023/12/29 05:50:54;;;;;;;;;1.00;1.00;;;;;13.19;87.64;100729.53;4868459;29;45445;-81
2023/12/29 05:53:19;;;;;;;;;3.67;1.67;;;;;13.22;87.17;100737.56;4869152;29;46155;-81
2023/12/29 05:55:45;;;;;;;;;0.67;0.67;;;;;13.26;86.78;100739.34;4867135;29;45435;-81
2023/12/29 05:58:12;;;;;;;;;3.00;1.00;;;;;13.25;86.67;100728.66;4868013;29;45517;-81
2023/12/29 06:00:38;;;;;;;;;1.75;1.00;;;;;13.22;86.44;100721.53;4870257;29;45458;-83
2023/12/29 06:03:04;;;;;;;;;4.75;3.00;;;;;13.24;86.27;100717.06;4868832;29;44996;-83
2023/12/29 06:05:30;;;;;;;;;2.00;1.50;;;;;13.32;85.73;100723.38;4868317;29;44925;-83
2023/12/29 06:07:56;;;;;;;;;5.00;1.75;;;;;13.28;85.60;100729.56;4852129;29;45405;-84
2023/12/29 06:10:23;;;;;;;;;2.25;0.50;;;;;13.34;85.49;100720.72;4870273;29;45346;-84
2023/12/29 06:12:49;;;;;;;;;1.00;0.00;;;;;13.26;85.03;100712.63;4853585;29;48168;-84
2023/12/29 06:15:14;;;;;;;;;0.00;0.00;;;;;13.25;84.66;100710.88;4871568;29;44736;-83
2023/12/29 06:17:40;;;;;;;;;1.00;1.00;;;;;13.17;84.70;100724.19;4854334;29;45449;-82
2023/12/29 06:20:07;;;;;;;;;4.00;1.00;;;;;13.20;85.19;100734.88;4872943;29;45472;-83
2023/12/29 06:22:33;;;;;;;;;2.00;2.00;;;;;13.18;84.28;100736.63;4851600;29;47794;-83
2023/12/29 06:24:59;;;;;;;;;2.50;1.00;;;;;13.17;84.85;100734.88;4850942;29;45974;-83
2023/12/29 06:27:25;;;;;;;;;2.25;2.00;;;;;13.20;84.50;100737.53;4867520;28;44914;-83
2023/12/29 06:29:51;;;;;;;;;2.00;1.00;;;;;13.09;84.77;100720.59;4851492;29;45685;-83
2023/12/29 06:32:16;;;;;;;;;0.25;0.00;;;;;13.16;84.39;100733.06;4851579;29;47315;-83
2023/12/29 06:34:42;;;;;;;;;3.00;3.00;;;;;13.14;84.34;100739.31;4869812;29;45754;-83
2023/12/29 06:37:07;;;;;;;;;3.33;2.33;;;;;13.12;84.65;100730.41;4852422;29;45612;-83
2023/12/29 06:39:32;;;;;;;;;1.25;0.00;;;;;13.09;84.78;100722.34;4867754;29;45100;-83
2023/12/29 06:42:05;;;;;;;;;2.00;1.50;;;;;13.27;85.00;100729.53;4869004;29;45407;-83
2023/12/29 06:44:30;;;;;;;;;1.75;1.75;;;;;13.15;84.49;100735.75;4869279;29;45428;-83
2023/12/29 06:46:56;;;;;;;;;1.00;1.00;;;;;13.16;84.83;100724.19;4868938;28;45438;-82
2023/12/29 06:49:21;;;;;;;;;13.67;13.67;;;;;13.15;84.97;100727.75;4853065;29;45289;-83
2023/12/29 06:51:46;;;;;;;;;1.00;1.00;;;;;13.16;85.20;100721.50;4851883;29;47085;-83
2023/12/29 06:54:12;;;;;;;;;1.00;1.00;;;;;13.19;85.42;100724.22;4851894;29;45642;-83
2023/12/29 06:56:37;;;;;;;;;1.67;1.67;;;;;13.22;85.18;100721.53;4867043;28;45400;-83
2023/12/29 06:59:03;;;;;;;;;1.00;1.00;;;;;13.22;85.00;100726.88;4851494;29;45471;-83
2023/12/29 07:01:28;;;;;;;;;2.00;1.00;;;;;13.13;85.19;100716.19;4850321;29;47181;-83
2023/12/29 07:03:54;;;;;;;;;0.75;0.75;;;;;13.12;85.41;100714.38;4866673;29;44945;-83
2023/12/29 07:06:19;;;;;;;;;2.50;1.75;;;;;13.07;85.92;100718.78;4850760;29;44973;-83
2023/12/29 07:08:44;;;;;;;;;2.33;1.00;;;;;12.98;85.78;100708.97;4866568;29;45409;-83
2023/12/29 07:11:11;;;;;;;;;2.00;1.00;;;;;13.02;86.15;100702.78;4848892;29;47076;-83
2023/12/29 07:13:37;;;;;;;;;0.00;0.00;;;;;12.96;86.57;100718.75;4865862;29;45416;-83
2023/12/29 07:16:02;;;;;;;;;1.50;0.25;;;;;12.94;86.11;100717.88;4866607;29;45420;-82
2023/12/29 07:18:28;;;;;;;;;1.25;0.50;;;;;12.88;87.08;100712.50;4849878;29;45365;-83
2023/12/29 07:20:53;;;;;;;;;1.00;0.75;;;;;12.84;87.20;100714.25;4868009;29;46989;-84
2023/12/29 07:23:19;;;;;;;;;3.25;1.75;;;;;12.79;87.58;100714.25;4852430;29;45449;-83
2023/12/29 07:25:47;;;;;;;;;2.00;2.00;;;;;12.79;87.74;100722.25;4869674;29;44905;-82
2023/12/29 07:28:12;;;;;;;;;0.00;0.00;;;;;12.75;87.76;100714.25;4869970;29;45575;-83
2023/12/29 07:30:38;;;;;;;;;0.50;0.00;;;;;12.73;88.23;100726.69;4852727;29;47883;-82
2023/12/29 07:33:03;;;;;;;;;1.25;1.00;;;;;12.65;88.33;100701.75;4869028;29;45405;-84
2023/12/29 07:35:29;;;;;;;;;0.00;0.00;;;;;12.65;88.26;100723.09;4851172;29;44930;-82
2023/12/29 07:37:54;;;;;;;;;1.00;1.00;;;;;12.64;88.65;100721.28;4850617;29;44994;-83
2023/12/29 07:40:20;;;;;;;;;0.00;0.00;;;;;12.61;88.90;100714.16;4851433;29;46992;-83
2023/12/29 07:42:46;;;;;;;;;0.50;0.25;;;;;12.54;89.01;100704.31;4852098;29;45394;-83
2023/12/29 07:45:12;;;;;;;;;0.75;0.75;;;;;12.56;89.63;100716.81;4870506;29;45455;-83
2023/12/29 07:47:37;;;;;;;;;1.50;1.50;;;;;12.49;89.74;100717.66;4849089;29;45437;-82
2023/12/29 07:50:05;;;;;;;;;0.00;0.00;;;;;12.51;89.85;100726.56;4871669;29;45301;-82
2023/12/29 07:52:30;;;;;;;;;1.00;1.00;;;;;12.43;90.08;100714.94;4854132;29;45864;-83
2023/12/29 07:54:56;;;;;;;;;0.75;0.75;;;;;12.45;90.45;100731.84;4870319;29;45039;-82
2023/12/29 07:57:21;;;;;;;;;1.00;1.00;;;;;12.43;90.13;100727.41;4869261;29;45837;-83
2023/12/29 07:59:48;;;;;;;;;0.00;0.00;;;;;12.52;90.55;100723.03;4869069;29;45691;-83
2023/12/29 08:02:13;;;;;;;;;2.00;2.00;;;;;12.35;90.91;100719.34;4869151;29;45391;-83
2023/12/29 08:04:39;;;;;;;;;1.75;1.75;;;;;12.40;90.67;100721.16;4854974;29;45136;-82
2023/12/29 08:07:04;;;;;;;;;3.00;1.33;;;;;12.38;90.85;100719.34;4855651;29;45171;-83
2023/12/29 08:09:32;;;;;;;;;1.00;1.00;;;;;12.49;90.74;100716.78;4874054;29;46156;-85
2023/12/29 08:11:57;;;;;;;;;1.00;1.00;;;;;12.42;90.24;100713.16;4875676;29;45907;-82
2023/12/29 08:14:22;;;;;;;;;2.50;1.00;;;;;12.43;90.81;100709.63;4872795;29;45444;-82
2023/12/29 08:16:48;;;;;;;;;1.75;1.75;;;;;12.47;90.61;100718.53;4870176;29;44971;-83
2023/12/29 08:19:15;;;;;;;;;1.00;1.00;;;;;12.46;90.60;100712.28;4851725;29;47514;-82
2023/12/29 08:22:33;;;;;;;;;2.00;1.00;;;;;12.66;90.53;100732.84;4867981;29;45375;-82
2023/12/29 08:25:06;;;;;;;;;2.00;1.00;;;;;12.68;90.57;100723.97;4871136;29;45394;-82
2023/12/29 08:27:33;;;;;;;;;0.00;0.00;;;;;12.67;90.61;100726.66;4869956;29;44757;-83
2023/12/29 08:29:58;;;;;;;;;2.00;2.00;;;;;12.56;90.54;100714.16;4854909;29;46958;-83
2023/12/29 08:32:23;;;;;;;;;1.00;0.50;;;;;12.57;90.69;100709.69;4871310;29;45454;-83
2023/12/29 08:35:36;;;;;;;;;4.00;1.00;;;;;12.76;90.56;100722.22;4837761;29;45470;-82
2023/12/29 08:38:01;;;;;;;;;3.00;1.33;;;;;12.58;90.75;100715.06;4871008;29;44770;-83
2023/12/29 08:40:27;;;;;;;;;1.00;1.00;;;;;12.58;90.79;100707.03;4854015;29;47747;-83
2023/12/29 08:45:28;;;;;;;;;1.00;1.00;;;;;12.66;90.95;100720.41;4854273;26;44895;-83
2023/12/29 08:47:54;;;;;;;;;1.00;1.00;;;;;12.73;90.69;100710.66;4905893;29;45403;-83
2023/12/29 08:50:19;;;;;;;;;1.00;1.00;;;;;12.80;90.57;100704.47;4907636;29;45233;-82
2023/12/29 08:52:45;;;;;;;;;1.75;0.25;;;;;12.85;90.28;100716.06;4910324;28;45340;-84
2023/12/29 08:55:11;;;;;;;;;0.75;0.00;;;;;12.96;90.51;100716.09;4909238;29;45377;-84
2023/12/29 08:57:38;;;;;;;;;2.25;2.00;;;;;12.96;90.14;100725.00;4909269;28;45257;-84
2023/12/29 09:00:05;;;;;;;;;5.00;2.00;;;;;12.94;89.66;100731.22;4911488;29;48465;-83
2023/12/29 09:02:31;;;;;;;;;4.50;1.50;;;;;12.97;89.62;100725.91;4909901;28;45803;-83
2023/12/29 09:04:59;;;;;;;;;1.00;1.00;;;;;13.08;89.62;100729.50;4914683;28;45192;-83
2023/12/29 09:07:27;;;;;;;;;1.75;1.00;;;;;13.17;89.44;100742.00;4913477;29;45484;-83
2023/12/29 09:09:53;;;;;;;;;1.00;1.00;;;;;13.16;88.77;100743.75;4910653;28;45456;-83
2023/12/29 09:12:18;;;;;;;;;1.00;1.00;;;;;13.12;88.76;100727.72;4911078;28;44869;-83
2023/12/29 09:14:44;;;;;;;;;2.00;1.50;;;;;13.30;88.77;100751.84;4909005;29;45359;-83
2023/12/29 09:17:09;;;;;;;;;2.00;2.00;;;;;13.36;87.82;100733.16;4908835;28;45389;-82
2023/12/29 09:19:35;;;;;;;;;3.00;3.00;;;;;13.29;87.12;100719.75;4893144;29;47456;-83
2023/12/29 09:22:03;;;;;;;;;3.00;2.00;;;;;13.49;87.38;100741.22;4910327;29;45392;-83
2023/12/29 09:24:29;;;;;;;;;3.00;2.00;;;;;13.47;87.33;100740.31;4908350;29;44857;-83
2023/12/29 09:26:58;;;;;;;;;1.00;1.00;;;;;13.46;86.66;100730.53;4909755;29;45313;-83
2023/12/29 09:29:24;;;;;;;;;2.50;1.00;;;;;13.46;86.68;100733.19;4910301;28;46685;-83
2023/12/29 09:31:49;;;;;;;;;3.00;1.25;;;;;13.39;86.60;100743.88;4909873;28;45397;-83
2023/12/29 09:34:15;;;;;;;;;1.00;1.00;;;;;13.46;86.42;100742.09;4912524;29;44925;-83
2023/12/29 09:36:41;;;;;;;;;2.00;2.00;;;;;13.48;86.25;100734.09;4926615;28;45324;-82
2023/12/29 09:39:08;;;;;;;;;1.00;0.00;;;;;13.60;85.84;100744.81;4911849;28;45413;-82
2023/12/29 09:41:37;;;;;;;;;2.00;0.75;;;;;13.62;85.39;100743.03;4909407;29;45456;-81
2023/12/29 09:44:06;;;;;;;;;2.50;1.75;;;;;13.62;85.13;100743.03;4907464;28;45046;-82
2023/12/29 09:46:32;;;;;;;;;1.00;1.00;;;;;13.65;85.29;100743.00;4907030;29;45577;-82
2023/12/29 09:49:05;;;;;;;;;1.50;1.50;;;;;13.89;85.56;100754.63;4907360;29;47155;-83
2023/12/29 09:51:31;;;;;;;;;3.00;2.00;;;;;13.93;84.56;100767.09;4905688;29;44867;-82
2023/12/29 09:53:58;;;;;;;;;0.75;0.75;;;;;14.04;84.62;100746.63;4894979;29;44892;-85
2023/12/29 09:56:27;;;;;;;;;1.25;1.25;;;;;14.08;83.28;100748.41;4927974;28;45463;-83
2023/12/29 09:58:54;;;;;;;;;1.75;1.75;;;;;14.10;83.09;100741.28;4907703;28;46871;-82
2023/12/29 10:01:29;;;;;;;;;1.50;1.00;;;;;14.21;83.17;100744.81;4907466;29;45291;-83
2023/12/29 10:03:54;;;;;;;;;1.00;1.00;;;;;14.11;83.25;100751.06;4915425;29;45473;-84
2023/12/29 10:06:24;;;;;;;;;3.25;1.50;;;;;14.26;83.25;100743.91;4912084;29;44817;-83
2023/12/29 10:08:50;;;;;;;;;1.00;1.00;;;;;14.18;82.38;100739.50;4915559;29;45419;-83
2023/12/29 10:11:20;;;;;;;;;1.00;1.00;;;;;14.19;81.83;100735.03;4913937;29;44916;-83
2023/12/29 10:13:50;;;;;;;;;2.75;2.00;;;;;14.16;81.54;100751.97;4911884;28;45386;-82
2023/12/29 10:16:42;;;;;;;;;1.50;0.50;;;;;14.18;81.43;100755.53;4918480;28;44930;-82
2023/12/29 10:19:18;;;;;;;;;3.00;1.00;;;;;14.14;81.35;100759.09;4910835;28;47155;-82
2023/12/29 10:21:52;;;;;;;;;2.50;2.00;;;;;14.07;85.95;100759.09;4916066;28;44781;-83
2023/12/29 10:24:22;;;;;;;;;4.50;1.00;;;;;14.13;82.14;100784.06;4913185;28;45561;-82
2023/12/29 10:26:48;;;;;;;;;1.25;0.50;;;;;14.06;81.90;100773.34;4911803;28;45436;-82
2023/12/29 10:29:14;;;;;;;;;1.25;1.25;;;;;14.10;82.13;100768.03;4910124;29;47536;-83
2023/12/29 10:31:39;;;;;;;;;0.00;0.00;;;;;14.13;81.81;100777.81;4912196;29;44814;-82
2023/12/29 10:34:31;;;;;;;;;1.75;1.75;;;;;14.31;81.37;100782.28;4913857;28;44907;-83
2023/12/29 10:36:57;;;;;;;;;1.50;1.00;;;;;14.20;81.47;100767.13;4910761;28;45762;-80
2023/12/29 10:39:25;;;;;;;;;3.75;3.00;;;;;14.31;81.75;100771.56;4906438;29;47303;-81
2023/12/29 10:42:05;;;;;;;;;4.25;2.75;;;;;14.43;81.17;100755.50;4890267;29;45499;-81
2023/12/29 10:44:31;;;;;;;;;0.75;0.75;;;;;14.35;81.03;100757.31;4908045;29;45390;-82
2023/12/29 10:46:57;;;;;;;;;1.00;1.00;;;;;14.36;81.00;100767.09;4911415;28;45306;-83
2023/12/29 10:49:22;;;;;;;;;4.25;2.00;;;;;14.38;81.14;100762.63;4915389;28;45337;-81
2023/12/29 10:51:48;;;;;;;;;2.00;0.50;;;;;14.33;81.75;100751.06;4905501;28;45840;-81
2023/12/29 10:54:24;;;;;;;;;2.00;1.00;;;;;14.49;81.52;100763.53;4905867;29;45446;-81
2023/12/29 10:57:07;;;;;;;;;1.00;1.00;;;;;14.60;81.94;100745.69;4908880;28;45522;-80
2023/12/29 10:59:34;;;;;;;;;2.00;2.00;;;;;14.50;81.75;100745.66;4909013;29;45464;-80
2023/12/29 11:02:03;;;;;;;;;2.00;0.00;;;;;14.58;81.19;100744.81;4910327;29;45420;-82
2023/12/29 11:04:30;;;;;;;;;2.00;2.00;;;;;14.62;81.12;100742.13;4908898;29;45427;-82
2023/12/29 11:06:57;;;;;;;;;4.00;1.75;;;;;14.43;81.73;100726.06;4916698;28;44900;-82
2023/12/29 11:09:41;;;;;;;;;3.00;3.00;;;;;14.49;81.43;100738.56;4922489;28;45126;-81
2023/12/29 11:12:07;;;;;;;;;1.25;1.25;;;;;14.33;83.13;100746.59;4919018;29;45201;-81
2023/12/29 11:14:33;;;;;;;;;2.25;2.25;;;;;14.29;83.37;100735.91;4909132;28;45496;-81
2023/12/29 11:17:00;;;;;;;;;5.75;2.00;;;;;14.37;82.59;100729.63;4909149;29;45444;-82
2023/12/29 11:19:28;;;;;;;;;2.00;1.25;;;;;14.29;82.37;100731.44;4911961;28;45466;-82
2023/12/29 11:21:56;;;;;;;;;1.50;1.25;;;;;14.53;82.51;100732.31;4909327;29;45344;-82
2023/12/29 11:24:29;;;;;;;;;2.25;2.25;;;;;14.70;81.39;100732.28;4906641;29;45481;-82
2023/12/29 11:26:57;;;;;;;;;1.50;1.50;;;;;14.74;81.60;100748.31;4909490;28;45420;-82
2023/12/29 11:29:28;;;;;;;;;1.00;1.00;;;;;14.85;80.54;100734.91;4909461;29;47113;-82
2023/12/29 11:32:05;;;;;;;;;8.33;3.33;;;;;14.85;80.07;100709.94;4913263;28;45669;-81
2023/12/29 11:34:41;;;;;;;;;2.00;1.00;;;;;14.96;80.06;100730.38;4922020;28;44810;-82